Time;durP1;ratioP1;P1;durP2;ratioP2;P2;SDS_P1;SDS_P2;PMS_P1;PMS_P2;Temp;Humidity;BMP_temperature;BMP_pressure;BME280_temperature;BME280_humidity;BME280_pressure;Samples;Min_cycle;Max_cycle;Signal;HPM_P1;HPM_P2
2021/10/26 00:00:34;;;;;;;2.90;1.70;;;21.60;51.70;;;;;;4976133;28;20045;-55
2021/10/26 00:02:59;;;;;;;3.28;1.90;;;21.50;51.70;;;;;;4984689;28;20142;-57
2021/10/26 00:05:25;;;;;;;2.40;1.60;;;21.60;51.80;;;;;;4983194;28;20474;-59
2021/10/26 00:07:51;;;;;;;2.50;1.70;;;21.60;51.80;;;;;;4983209;28;20045;-52
2021/10/26 00:10:16;;;;;;;2.50;1.60;;;21.50;51.70;;;;;;4979837;28;20355;-58
2021/10/26 00:12:42;;;;;;;2.95;1.55;;;21.50;51.70;;;;;;4987838;28;20038;-52
2021/10/26 00:15:08;;;;;;;2.20;1.60;;;21.50;51.70;;;;;;4977626;28;20077;-53
2021/10/26 00:17:34;;;;;;;3.13;2.25;;;21.50;51.70;;;;;;4983911;28;20034;-55
2021/10/26 00:20:00;;;;;;;2.25;1.50;;;21.50;51.70;;;;;;4977532;28;20548;-57
2021/10/26 00:22:26;;;;;;;2.67;1.83;;;21.50;51.70;;;;;;4978112;28;20030;-55
2021/10/26 00:24:51;;;;;;;3.03;1.83;;;21.50;51.70;;;;;;4985747;28;20061;-51
2021/10/26 00:27:17;;;;;;;2.97;1.65;;;21.50;51.70;;;;;;4983987;28;20026;-57
2021/10/26 00:29:42;;;;;;;2.60;1.70;;;21.50;51.70;;;;;;4983518;28;20026;-55
2021/10/26 00:32:08;;;;;;;3.05;1.80;;;21.50;51.70;;;;;;4978501;28;20352;-58
2021/10/26 00:34:34;;;;;;;3.20;1.70;;;21.50;51.70;;;;;;4986321;28;20134;-60
2021/10/26 00:36:59;;;;;;;2.47;1.83;;;21.50;51.80;;;;;;4984008;28;20038;-55
2021/10/26 00:39:25;;;;;;;3.00;1.88;;;21.40;51.80;;;;;;4983273;28;20130;-56
2021/10/26 00:41:51;;;;;;;3.58;1.77;;;21.40;51.70;;;;;;4980162;28;20362;-59
2021/10/26 00:44:17;;;;;;;3.45;1.70;;;21.50;51.80;;;;;;4981967;28;20046;-53
2021/10/26 00:46:42;;;;;;;3.15;1.80;;;21.40;51.70;;;;;;4986354;28;20030;-59
2021/10/26 00:49:11;;;;;;;2.50;1.60;;;21.40;51.70;;;;;;4988287;28;20145;-60
2021/10/26 00:51:39;;;;;;;2.50;1.70;;;21.40;51.80;;;;;;4984542;28;20414;-60
2021/10/26 00:54:05;;;;;;;2.55;1.60;;;21.40;51.70;;;;;;4989554;28;20045;-55
2021/10/26 00:56:32;;;;;;;2.92;1.80;;;21.40;51.70;;;;;;4988823;28;20529;-53
2021/10/26 00:58:58;;;;;;;2.83;1.60;;;21.40;51.80;;;;;;4989803;28;20331;-58
2021/10/26 01:01:24;;;;;;;2.90;1.88;;;21.40;51.70;;;;;;4984328;28;20041;-60
2021/10/26 01:03:50;;;;;;;2.88;1.70;;;21.40;51.80;;;;;;4976506;28;20133;-56
2021/10/26 01:06:16;;;;;;;2.75;1.88;;;21.40;51.80;;;;;;4978967;28;20399;-54
2021/10/26 01:08:43;;;;;;;2.78;1.90;;;21.40;51.80;;;;;;4984508;28;20101;-58
2021/10/26 01:11:09;;;;;;;2.65;1.83;;;21.40;51.80;;;;;;4987630;28;20315;-53
2021/10/26 01:13:34;;;;;;;3.17;1.92;;;21.40;51.80;;;;;;4990065;28;20022;-59
2021/10/26 01:16:00;;;;;;;3.08;2.15;;;21.40;51.80;;;;;;4988189;28;20038;-54
2021/10/26 01:18:26;;;;;;;2.72;1.73;;;21.40;51.80;;;;;;4990064;28;20065;-61
2021/10/26 01:20:53;;;;;;;3.08;1.80;;;21.30;51.80;;;;;;4988430;28;20712;-56
2021/10/26 01:23:20;;;;;;;2.70;1.80;;;21.30;51.80;;;;;;4987075;28;20034;-59
2021/10/26 01:25:46;;;;;;;2.67;1.65;;;21.30;51.80;;;;;;4987327;28;20041;-52
2021/10/26 01:28:13;;;;;;;2.88;1.58;;;21.30;51.80;;;;;;4985238;28;20358;-57
2021/10/26 01:30:39;;;;;;;2.35;1.50;;;21.30;51.80;;;;;;4986919;28;20089;-52
2021/10/26 01:33:05;;;;;;;2.58;1.70;;;21.30;51.90;;;;;;4984417;28;20715;-60
2021/10/26 01:35:32;;;;;;;2.53;1.60;;;21.30;51.80;;;;;;4987371;28;20113;-56
2021/10/26 01:37:58;;;;;;;2.63;1.67;;;21.30;51.90;;;;;;4983681;28;20105;-58
2021/10/26 01:40:24;;;;;;;2.28;1.60;;;21.30;51.90;;;;;;4985858;28;20034;-53
2021/10/26 01:42:50;;;;;;;2.70;1.63;;;21.30;51.90;;;;;;4985179;28;20046;-59
2021/10/26 01:45:16;;;;;;;2.40;1.65;;;21.30;51.90;;;;;;4995529;28;20105;-60
2021/10/26 01:47:43;;;;;;;2.70;1.70;;;21.30;51.90;;;;;;4985502;28;20034;-56
2021/10/26 01:50:11;;;;;;;2.30;1.67;;;21.30;51.90;;;;;;4987915;28;20030;-61
2021/10/26 01:52:38;;;;;;;2.75;1.70;;;21.30;51.90;;;;;;4987098;28;20036;-58
2021/10/26 01:55:04;;;;;;;2.25;1.48;;;21.20;51.90;;;;;;4985368;28;20478;-60
2021/10/26 01:57:30;;;;;;;2.58;1.50;;;21.30;51.90;;;;;;4987984;28;20034;-52
2021/10/26 01:59:57;;;;;;;2.60;1.50;;;21.20;51.90;;;;;;4987737;28;20155;-58
2021/10/26 02:02:25;;;;;;;2.70;1.60;;;21.20;51.90;;;;;;4985282;28;20066;-58
2021/10/26 02:04:55;;;;;;;2.83;1.73;;;21.20;51.90;;;;;;4986562;28;20046;-56
2021/10/26 02:07:20;;;;;;;2.28;1.65;;;21.20;51.90;;;;;;4984220;28;20038;-60
2021/10/26 02:09:46;;;;;;;2.20;1.58;;;21.20;51.90;;;;;;4986971;28;20030;-53
2021/10/26 02:12:12;;;;;;;2.85;1.50;;;21.20;51.90;;;;;;4986742;28;20041;-58
2021/10/26 02:14:37;;;;;;;3.38;1.63;;;21.20;51.90;;;;;;4988305;28;20097;-59
2021/10/26 02:17:04;;;;;;;2.28;1.48;;;21.20;51.90;;;;;;4985553;28;20034;-53
2021/10/26 02:19:30;;;;;;;2.00;1.50;;;21.20;52.50;;;;;;4990291;28;20403;-61
2021/10/26 02:21:56;;;;;;;2.42;1.73;;;21.20;52.00;;;;;;4981734;28;20069;-57
2021/10/26 02:24:22;;;;;;;2.40;1.50;;;21.20;52.00;;;;;;4985456;28;20711;-56
2021/10/26 02:26:49;;;;;;;2.08;1.50;;;21.20;52.00;;;;;;4984212;28;20027;-57
2021/10/26 02:29:15;;;;;;;2.47;1.63;;;21.20;52.00;;;;;;4981124;28;20060;-58
2021/10/26 02:31:41;;;;;;;2.08;1.50;;;21.20;52.00;;;;;;4985684;28;20435;-59
2021/10/26 02:34:07;;;;;;;2.55;1.80;;;21.20;52.00;;;;;;4979804;28;20217;-54
2021/10/26 02:36:33;;;;;;;2.50;1.52;;;21.20;52.00;;;;;;4987627;28;20034;-60
2021/10/26 02:38:59;;;;;;;2.50;1.40;;;21.10;52.00;;;;;;4989290;28;20526;-55
2021/10/26 02:41:25;;;;;;;2.42;1.60;;;21.10;51.90;;;;;;4978132;28;20033;-56
2021/10/26 02:43:50;;;;;;;2.17;1.60;;;21.10;51.90;;;;;;4987109;28;20042;-61
2021/10/26 02:46:16;;;;;;;1.85;1.40;;;21.10;51.90;;;;;;4984454;28;20041;-61
2021/10/26 02:48:42;;;;;;;1.80;1.40;;;21.10;52.00;;;;;;4980983;28;20026;-59
2021/10/26 02:51:09;;;;;;;2.20;1.60;;;21.10;52.00;;;;;;4979581;28;20022;-57
2021/10/26 02:53:35;;;;;;;2.10;1.52;;;21.10;52.00;;;;;;4981347;28;20134;-60
2021/10/26 02:56:00;;;;;;;1.77;1.27;;;21.10;52.00;;;;;;4986608;28;20117;-59
2021/10/26 02:58:26;;;;;;;2.28;1.58;;;21.10;52.00;;;;;;4984481;28;20030;-59
2021/10/26 03:00:52;;;;;;;2.10;1.48;;;21.10;52.00;;;;;;4985744;28;20347;-59
2021/10/26 03:03:18;;;;;;;2.15;1.52;;;21.10;52.00;;;;;;4988090;28;20089;-59
2021/10/26 03:05:44;;;;;;;2.20;1.42;;;21.10;52.00;;;;;;4986335;28;20626;-58
2021/10/26 03:08:10;;;;;;;1.95;1.50;;;21.10;52.10;;;;;;4985444;28;20387;-57
2021/10/26 03:10:36;;;;;;;2.20;1.60;;;21.10;52.00;;;;;;4983466;28;20099;-59
2021/10/26 03:13:02;;;;;;;1.63;1.33;;;21.10;52.00;;;;;;4982835;28;20670;-55
2021/10/26 03:15:29;;;;;;;1.80;1.40;;;21.10;52.00;;;;;;4981335;28;20038;-53
2021/10/26 03:17:55;;;;;;;2.35;1.48;;;21.10;52.00;;;;;;4986801;28;20038;-59
2021/10/26 03:20:21;;;;;;;2.28;1.50;;;21.10;52.00;;;;;;4983844;28;20048;-57
2021/10/26 03:22:47;;;;;;;2.00;1.40;;;21.10;52.10;;;;;;4982619;28;20069;-56
2021/10/26 03:25:12;;;;;;;2.47;1.50;;;21.10;52.00;;;;;;4983440;28;20074;-61
2021/10/26 03:27:38;;;;;;;1.83;1.30;;;21.00;52.00;;;;;;4984892;28;20137;-58
2021/10/26 03:30:06;;;;;;;2.33;1.48;;;21.00;52.00;;;;;;4982934;28;20034;-58
2021/10/26 03:32:31;;;;;;;1.85;1.48;;;21.00;52.00;;;;;;4978944;28;20102;-56
2021/10/26 03:34:57;;;;;;;2.30;1.50;;;21.10;52.10;;;;;;4981372;28;20054;-61
2021/10/26 03:37:23;;;;;;;2.00;1.50;;;21.00;52.00;;;;;;4987426;28;20084;-55
2021/10/26 03:39:54;;;;;;;1.75;1.40;;;21.10;52.00;;;;;;4983881;28;20087;-55
2021/10/26 03:42:21;;;;;;;2.25;1.50;;;21.00;52.00;;;;;;4981292;28;20033;-56
2021/10/26 03:44:47;;;;;;;2.92;1.40;;;21.00;52.00;;;;;;4983160;28;20084;-60
2021/10/26 03:47:12;;;;;;;2.28;1.45;;;21.00;52.00;;;;;;4981851;28;20057;-60
2021/10/26 03:49:38;;;;;;;2.20;1.30;;;21.00;52.00;;;;;;4983992;28;20031;-57
2021/10/26 03:52:04;;;;;;;2.13;1.55;;;21.00;52.00;;;;;;4978654;28;20088;-57
2021/10/26 03:54:29;;;;;;;1.75;1.30;;;21.00;52.00;;;;;;4983103;28;20122;-57
2021/10/26 03:56:55;;;;;;;2.42;1.50;;;21.00;52.00;;;;;;4985404;28;20042;-61
2021/10/26 03:59:22;;;;;;;2.08;1.35;;;21.00;52.00;;;;;;4978837;28;20061;-58
2021/10/26 04:01:47;;;;;;;1.52;1.20;;;21.00;52.00;;;;;;4982176;28;20045;-55
2021/10/26 04:04:13;;;;;;;1.92;1.27;;;21.00;52.00;;;;;;4983891;28;20022;-59
2021/10/26 04:06:42;;;;;;;1.73;1.30;;;21.10;52.10;;;;;;4985849;28;20482;-53
2021/10/26 04:09:10;;;;;;;2.00;1.35;;;21.00;52.10;;;;;;4985981;28;20114;-58
2021/10/26 04:12:17;;;;;;;2.22;1.35;;;21.00;52.10;;;;;;4983987;28;20035;-56
2021/10/26 04:14:24;;;;;;;2.13;1.40;;;21.00;52.10;;;;;;4974932;28;20121;-59
2021/10/26 04:16:50;;;;;;;2.05;1.35;;;21.00;52.10;;;;;;4983916;28;20502;-51
2021/10/26 04:19:15;;;;;;;1.35;1.10;;;21.00;52.10;;;;;;4989988;28;20027;-54
2021/10/26 04:21:41;;;;;;;1.80;1.30;;;21.00;52.10;;;;;;4981068;28;20125;-53
2021/10/26 04:24:06;;;;;;;1.80;1.20;;;21.00;52.10;;;;;;4983148;28;20141;-57
2021/10/26 04:26:32;;;;;;;1.50;1.20;;;21.00;52.10;;;;;;4980841;28;20106;-59
2021/10/26 04:28:57;;;;;;;1.88;1.30;;;21.00;52.10;;;;;;4984124;28;20022;-53
2021/10/26 04:31:23;;;;;;;1.65;1.27;;;21.00;52.10;;;;;;4988236;28;20109;-52
2021/10/26 04:33:49;;;;;;;1.92;1.33;;;21.00;52.20;;;;;;4985066;28;20034;-59
2021/10/26 04:36:14;;;;;;;1.75;1.15;;;21.00;52.10;;;;;;4983743;28;20495;-61
2021/10/26 04:38:40;;;;;;;2.17;1.17;;;21.00;52.20;;;;;;4983343;28;20037;-57
2021/10/26 04:41:08;;;;;;;1.70;1.30;;;21.00;52.20;;;;;;4985386;28;20049;-61
2021/10/26 04:43:34;;;;;;;1.98;1.30;;;21.00;52.20;;;;;;4986237;28;20502;-57
2021/10/26 04:46:01;;;;;;;1.70;1.38;;;21.00;52.20;;;;;;4984828;28;20549;-61
2021/10/26 04:48:27;;;;;;;1.88;1.30;;;21.00;52.20;;;;;;4980198;28;20031;-52
2021/10/26 04:50:53;;;;;;;1.80;1.20;;;21.00;52.20;;;;;;4984639;28;20130;-59
2021/10/26 04:53:20;;;;;;;1.90;1.20;;;21.00;52.20;;;;;;4981364;28;20195;-59
2021/10/26 04:55:46;;;;;;;1.75;1.30;;;21.00;52.20;;;;;;4979653;28;20026;-60
2021/10/26 04:58:12;;;;;;;2.88;1.30;;;21.00;52.20;;;;;;4991505;28;20584;-56
2021/10/26 05:00:37;;;;;;;1.50;1.20;;;21.00;52.30;;;;;;4986378;28;20092;-59
2021/10/26 05:03:03;;;;;;;1.73;1.35;;;20.90;52.20;;;;;;4985313;28;20023;-58
2021/10/26 05:05:29;;;;;;;2.03;1.35;;;21.00;52.30;;;;;;4983310;28;20034;-60
2021/10/26 05:07:55;;;;;;;2.42;1.50;;;21.00;52.30;;;;;;4982413;28;20026;-56
2021/10/26 05:10:20;;;;;;;1.50;1.10;;;21.00;52.30;;;;;;4984546;28;20132;-54
2021/10/26 05:12:46;;;;;;;1.55;1.13;;;21.00;52.30;;;;;;4986240;28;20022;-58
2021/10/26 05:15:12;;;;;;;1.70;1.20;;;20.90;52.20;;;;;;4975313;28;20438;-58
2021/10/26 05:17:39;;;;;;;1.20;1.05;;;21.00;52.30;;;;;;4979652;28;20077;-57
2021/10/26 05:20:07;;;;;;;1.80;1.38;;;20.90;52.30;;;;;;4986588;28;20038;-59
2021/10/26 05:22:33;;;;;;;1.67;1.20;;;20.90;52.30;;;;;;4988023;28;20026;-61
2021/10/26 05:24:58;;;;;;;2.13;1.20;;;20.90;52.30;;;;;;4988746;28;20085;-59
2021/10/26 05:27:25;;;;;;;1.90;1.20;;;20.90;52.30;;;;;;4983806;28;20031;-55
2021/10/26 05:29:50;;;;;;;2.63;1.60;;;20.90;52.30;;;;;;4987119;28;20296;-62
2021/10/26 05:32:16;;;;;;;2.55;1.58;;;21.00;53.40;;;;;;4989039;28;20041;-59
2021/10/26 05:34:43;;;;;;;2.55;1.60;;;21.10;52.80;;;;;;4987876;28;20112;-59
2021/10/26 05:37:12;;;;;;;2.53;1.63;;;21.20;52.70;;;;;;4987001;28;20492;-55
2021/10/26 05:39:41;;;;;;;2.70;1.65;;;21.30;52.50;;;;;;4985696;28;20449;-55
2021/10/26 05:42:07;;;;;;;2.97;1.40;;;21.40;52.40;;;;;;4985734;28;20039;-56
2021/10/26 05:44:34;;;;;;;2.30;1.42;;;21.50;52.80;;;;;;4980079;28;20137;-62
2021/10/26 05:47:00;;;;;;;2.50;1.77;;;21.60;52.00;;;;;;4985957;28;20114;-58
2021/10/26 05:49:26;;;;;;;2.38;1.52;;;21.70;51.80;;;;;;4986057;28;20038;-59
2021/10/26 05:51:51;;;;;;;2.72;1.70;;;21.90;51.60;;;;;;4994882;28;20583;-59
2021/10/26 05:54:17;;;;;;;2.40;1.60;;;22.00;51.40;;;;;;4988531;28;20113;-62
2021/10/26 05:56:43;;;;;;;2.22;1.42;;;22.00;51.30;;;;;;4988605;28;20054;-59
2021/10/26 05:59:08;;;;;;;2.22;1.35;;;22.20;51.20;;;;;;4984041;28;20057;-54
2021/10/26 06:01:34;;;;;;;2.55;1.60;;;22.30;51.10;;;;;;4987444;28;20122;-60
2021/10/26 06:04:05;;;;;;;2.72;1.85;;;22.40;50.80;;;;;;4988858;28;20665;-59
2021/10/26 06:06:30;;;;;;;2.00;1.40;;;22.40;50.70;;;;;;4987897;28;20708;-54
2021/10/26 06:08:56;;;;;;;2.60;1.63;;;22.50;50.60;;;;;;4984103;28;20058;-58
2021/10/26 06:11:24;;;;;;;2.08;1.50;;;22.60;50.50;;;;;;4988984;28;20057;-62
2021/10/26 06:14:00;;;;;;;2.00;1.50;;;22.70;50.40;;;;;;4988812;28;20022;-56
2021/10/26 06:16:27;;;;;;;2.15;1.50;;;22.70;50.00;;;;;;4984219;28;20506;-59
2021/10/26 06:18:53;;;;;;;1.60;1.20;;;22.70;50.00;;;;;;4988309;28;20560;-59
2021/10/26 06:21:19;;;;;;;2.45;1.40;;;22.60;50.10;;;;;;4989332;28;20030;-62
2021/10/26 06:23:45;;;;;;;2.40;1.45;;;22.60;50.20;;;;;;4986744;28;20122;-59
2021/10/26 06:26:11;;;;;;;2.03;1.45;;;22.60;50.20;;;;;;4988634;28;20135;-58
2021/10/26 06:28:37;;;;;;;2.63;1.40;;;22.50;50.20;;;;;;4990951;28;20033;-59
2021/10/26 06:31:03;;;;;;;3.22;1.30;;;22.60;50.30;;;;;;4984537;28;20034;-60
2021/10/26 06:33:29;;;;;;;2.30;1.30;;;22.60;50.40;;;;;;4996020;28;20046;-60
2021/10/26 06:35:54;;;;;;;2.10;1.50;;;22.60;50.40;;;;;;4986152;28;20031;-61
2021/10/26 06:38:20;;;;;;;1.38;1.10;;;22.60;50.40;;;;;;4988780;28;20041;-60
2021/10/26 06:40:46;;;;;;;1.77;1.25;;;22.50;50.40;;;;;;4988219;28;20060;-62
2021/10/26 06:43:11;;;;;;;2.33;1.30;;;22.60;50.40;;;;;;4986969;28;20030;-58
2021/10/26 06:45:37;;;;;;;1.70;1.30;;;22.60;50.40;;;;;;4988665;28;20514;-61
2021/10/26 06:48:03;;;;;;;2.00;1.30;;;22.60;50.40;;;;;;4980551;28;20109;-63
2021/10/26 06:50:28;;;;;;;1.70;1.10;;;22.50;50.30;;;;;;4980279;28;20061;-62
2021/10/26 06:52:54;;;;;;;1.85;1.20;;;22.50;50.30;;;;;;4991573;28;20045;-60
2021/10/26 06:55:20;;;;;;;2.58;1.40;;;22.60;50.40;;;;;;4997109;28;20049;-58
2021/10/26 06:57:48;;;;;;;2.20;1.40;;;22.60;50.40;;;;;;4990222;28;20032;-59
2021/10/26 07:00:17;;;;;;;2.22;1.20;;;22.60;50.40;;;;;;4986087;28;20048;-60
2021/10/26 07:02:51;;;;;;;2.55;1.45;;;22.60;50.30;;;;;;4986758;28;20034;-58
2021/10/26 07:05:20;;;;;;;1.80;1.27;;;22.60;50.30;;;;;;4990049;28;20434;-59
2021/10/26 07:07:45;;;;;;;1.60;1.13;;;22.60;50.30;;;;;;4987967;28;20434;-55
2021/10/26 07:10:12;;;;;;;1.63;1.23;;;22.60;50.30;;;;;;4987505;28;20204;-59
2021/10/26 07:12:38;;;;;;;1.77;1.20;;;22.60;50.40;;;;;;4992758;28;20107;-54
2021/10/26 07:15:07;;;;;;;1.92;1.20;;;22.60;50.40;;;;;;4989536;28;20370;-55
2021/10/26 07:17:36;;;;;;;2.13;1.30;;;22.60;50.40;;;;;;4987307;28;20053;-61
2021/10/26 07:20:08;;;;;;;1.50;1.00;;;22.60;50.40;;;;;;4982842;28;20278;-58
2021/10/26 07:22:34;;;;;;;1.77;1.23;;;22.60;50.40;;;;;;4980747;28;20121;-56
2021/10/26 07:25:05;;;;;;;2.05;1.20;;;22.70;50.40;;;;;;4986736;28;20034;-62
2021/10/26 07:27:32;;;;;;;1.67;1.25;;;22.70;50.40;;;;;;4992743;28;20536;-58
2021/10/26 07:29:58;;;;;;;1.45;1.10;;;22.70;50.40;;;;;;4986631;28;20053;-56
2021/10/26 07:32:24;;;;;;;2.13;1.35;;;22.70;50.30;;;;;;4986678;28;20060;-56
2021/10/26 07:34:50;;;;;;;1.70;1.20;;;22.70;50.40;;;;;;4984176;28;20042;-62
2021/10/26 07:37:20;;;;;;;2.05;1.30;;;22.70;50.30;;;;;;4984385;28;20029;-61
2021/10/26 07:39:46;;;;;;;2.10;1.15;;;22.70;50.30;;;;;;4982804;28;20122;-58
2021/10/26 07:42:16;;;;;;;1.50;1.15;;;22.70;50.30;;;;;;4977102;28;20685;-59
2021/10/26 07:44:43;;;;;;;1.95;1.38;;;22.70;50.40;;;;;;4987844;28;20035;-59
2021/10/26 07:47:09;;;;;;;1.98;1.30;;;22.80;50.60;;;;;;4986310;28;20029;-62
2021/10/26 07:49:35;;;;;;;1.95;1.30;;;22.90;50.50;;;;;;4987744;28;20153;-59
2021/10/26 07:52:03;;;;;;;2.50;1.50;;;23.00;50.30;;;;;;4983438;28;20483;-57
2021/10/26 07:54:29;;;;;;;1.90;1.25;;;23.10;50.10;;;;;;4985397;28;20029;-54
2021/10/26 07:56:55;;;;;;;1.35;1.10;;;23.10;49.80;;;;;;4991187;28;20133;-61
2021/10/26 07:59:23;;;;;;;1.80;1.20;;;23.10;49.80;;;;;;4988523;28;20487;-59
2021/10/26 08:01:49;;;;;;;1.55;1.20;;;23.10;49.90;;;;;;4980582;28;20467;-60
2021/10/26 08:04:16;;;;;;;2.00;1.30;;;23.10;49.90;;;;;;4986342;28;20026;-60
2021/10/26 08:06:46;;;;;;;1.73;1.10;;;23.10;49.90;;;;;;4984920;28;20085;-59
2021/10/26 08:09:13;;;;;;;;;;;23.10;49.90;;;;;;4982870;28;20052;-56
2021/10/26 08:11:39;;;;;;;1.40;1.05;;;23.10;49.90;;;;;;4982974;28;19933;-62
2021/10/26 08:14:05;;;;;;;1.60;1.20;;;23.10;49.90;;;;;;4986162;28;20118;-62
2021/10/26 08:16:31;;;;;;;2.17;1.20;;;23.10;50.00;;;;;;4982462;28;20102;-56
2021/10/26 08:18:58;;;;;;;1.70;1.10;;;23.10;50.00;;;;;;4986250;28;20125;-59
2021/10/26 08:21:24;;;;;;;1.65;1.20;;;23.10;50.00;;;;;;4983874;28;20095;-60
2021/10/26 08:23:50;;;;;;;1.63;1.15;;;23.10;50.00;;;;;;4988876;28;20030;-58
2021/10/26 08:26:21;;;;;;;1.85;1.40;;;23.10;50.00;;;;;;4978091;28;20061;-58
2021/10/26 08:28:51;;;;;;;1.90;1.20;;;23.10;50.00;;;;;;4984055;28;20034;-56
2021/10/26 08:31:25;;;;;;;2.00;1.20;;;23.10;50.00;;;;;;4982189;28;20042;-57
2021/10/26 08:36:36;;;;;;;1.35;1.20;;;23.10;49.90;;;;;;4995320;28;20026;-57
2021/10/26 08:39:02;;;;;;;1.50;1.20;;;23.10;49.90;;;;;;4985762;28;20038;-57
2021/10/26 08:41:29;;;;;;;2.47;1.20;;;23.10;50.00;;;;;;4988499;28;20030;-59
2021/10/26 08:43:55;;;;;;;1.73;1.13;;;23.10;50.00;;;;;;4979452;28;20030;-59
2021/10/26 08:46:22;;;;;;;1.58;1.20;;;23.10;50.00;;;;;;4985855;28;20037;-58
2021/10/26 08:48:50;;;;;;;1.70;1.17;;;23.10;49.90;;;;;;4985678;28;20026;-60
2021/10/26 08:51:17;;;;;;;1.40;1.00;;;23.10;49.90;;;;;;4981162;28;20092;-59
2021/10/26 08:53:46;;;;;;;1.50;1.10;;;23.10;50.00;;;;;;4984121;28;20034;-62
2021/10/26 08:56:12;;;;;;;1.65;1.40;;;23.20;50.00;;;;;;4985586;28;20034;-60
2021/10/26 08:58:38;;;;;;;1.55;1.20;;;23.10;49.90;;;;;;4987794;28;20110;-54
2021/10/26 09:01:05;;;;;;;1.90;1.30;;;23.10;49.90;;;;;;4991049;28;20042;-61
2021/10/26 09:03:35;;;;;;;1.25;1.00;;;23.10;49.90;;;;;;4993856;28;20041;-59
2021/10/26 09:06:02;;;;;;;1.63;1.00;;;23.10;50.00;;;;;;4988297;28;20030;-60
2021/10/26 09:08:28;;;;;;;1.35;1.08;;;23.10;50.60;;;;;;4984022;28;20572;-59
2021/10/26 09:10:58;;;;;;;1.48;1.10;;;23.10;50.10;;;;;;4985260;28;20030;-59
2021/10/26 09:16:43;;;;;;;2.90;1.10;;;23.10;50.60;;;;;;4991659;28;19932;-57
2021/10/26 09:19:14;;;;;;;1.77;1.00;;;23.10;50.50;;;;;;4978352;28;20550;-59
2021/10/26 09:21:41;;;;;;;1.30;1.02;;;23.20;50.50;;;;;;4984136;28;20269;-56
2021/10/26 09:24:13;;;;;;;1.42;1.10;;;23.20;50.50;;;;;;4995850;28;20030;-58
2021/10/26 09:26:53;;;;;;;1.42;1.13;;;23.10;50.40;;;;;;4993271;28;20022;-58
2021/10/26 09:29:28;;;;;;;1.60;1.10;;;23.20;50.20;;;;;;4989871;28;20338;-63
2021/10/26 09:32:17;;;;;;;1.55;1.20;;;23.20;50.20;;;;;;4987157;28;20040;-59
2021/10/26 09:34:49;;;;;;;1.55;1.17;;;23.20;50.10;;;;;;4987116;28;20122;-57
2021/10/26 09:37:17;;;;;;;2.15;1.30;;;23.20;50.20;;;;;;4990149;28;20655;-57
2021/10/26 09:39:57;;;;;;;1.90;1.30;;;23.20;50.10;;;;;;4997922;28;20556;-60
2021/10/26 09:42:25;;;;;;;1.25;1.05;;;23.20;50.10;;;;;;4995502;28;20121;-53
2021/10/26 09:44:56;;;;;;;1.55;1.08;;;23.20;50.20;;;;;;4990583;28;20121;-55
2021/10/26 09:47:25;;;;;;;1.40;1.02;;;23.20;50.40;;;;;;4987773;28;20494;-58
2021/10/26 09:50:00;;;;;;;1.43;1.10;;;23.20;50.60;;;;;;4991168;28;20026;-59
2021/10/26 09:52:28;;;;;;;1.85;1.10;;;23.20;50.50;;;;;;4986463;28;20284;-57
2021/10/26 09:55:23;;;;;;;1.55;1.10;;;23.20;50.60;;;;;;4991940;28;20548;-59
2021/10/26 09:58:05;;;;;;;1.83;1.05;;;23.20;50.70;;;;;;4988780;28;20131;-61
2021/10/26 10:00:34;;;;;;;1.70;1.10;;;23.20;50.70;;;;;;4982766;28;20125;-54
2021/10/26 10:03:03;;;;;;;1.60;1.00;;;23.20;51.10;;;;;;4983931;28;20030;-54
2021/10/26 10:05:31;;;;;;;2.05;1.20;;;23.30;51.30;;;;;;4985451;28;20019;-57
2021/10/26 10:08:24;;;;;;;1.60;1.27;;;23.30;50.70;;;;;;4989478;28;20110;-59
2021/10/26 10:10:57;;;;;;;1.40;1.17;;;23.30;50.80;;;;;;4998435;28;20037;-57
2021/10/26 10:13:22;;;;;;;1.58;1.10;;;23.30;50.60;;;;;;4997910;28;20022;-62
2021/10/26 10:15:49;;;;;;;1.73;1.10;;;23.30;50.40;;;;;;4991828;28;20072;-61
2021/10/26 10:18:18;;;;;;;1.58;1.10;;;23.40;50.40;;;;;;4993914;28;20031;-62
2021/10/26 10:20:46;;;;;;;1.38;1.05;;;23.40;50.40;;;;;;4991060;28;20053;-61
2021/10/26 10:23:12;;;;;;;1.10;0.93;;;23.40;50.40;;;;;;4995458;28;20034;-61
2021/10/26 10:25:42;;;;;;;2.20;1.35;;;23.40;50.40;;;;;;4997003;28;20026;-55
2021/10/26 10:28:08;;;;;;;1.55;1.00;;;23.30;50.30;;;;;;4997841;28;20030;-53
2021/10/26 10:30:36;;;;;;;1.90;1.10;;;23.40;50.30;;;;;;4990913;28;20085;-55
2021/10/26 10:33:02;;;;;;;1.90;1.30;;;23.40;50.30;;;;;;4993068;28;20048;-58
2021/10/26 10:35:30;;;;;;;1.77;1.20;;;23.40;50.30;;;;;;4990987;28;20027;-52
2021/10/26 10:37:58;;;;;;;2.10;1.13;;;23.40;50.40;;;;;;4992289;28;20078;-62
2021/10/26 10:40:26;;;;;;;1.92;1.20;;;23.40;50.40;;;;;;4980453;28;20486;-56
2021/10/26 10:42:53;;;;;;;2.05;1.10;;;23.40;50.40;;;;;;4978887;28;20030;-56
2021/10/26 10:45:24;;;;;;;1.45;1.05;;;23.40;50.40;;;;;;4987546;28;20398;-55
2021/10/26 10:47:51;;;;;;;1.90;1.10;;;23.40;50.50;;;;;;4988507;28;20037;-57
2021/10/26 10:50:19;;;;;;;1.50;1.20;;;23.40;50.40;;;;;;4982734;28;20030;-56
2021/10/26 10:53:02;;;;;;;1.80;1.30;;;23.40;50.40;;;;;;4980997;28;20435;-62
2021/10/26 10:55:28;;;;;;;1.65;1.15;;;23.40;50.40;;;;;;4985565;28;20030;-60
2021/10/26 10:57:53;;;;;;;2.17;1.20;;;23.40;50.30;;;;;;4987115;28;20120;-62
2021/10/26 11:00:34;;;;;;;1.67;1.30;;;23.40;50.30;;;;;;4987505;28;20018;-57
2021/10/26 11:03:00;;;;;;;2.58;1.48;;;23.40;50.20;;;;;;4978637;28;20035;-51
2021/10/26 11:05:38;;;;;;;1.77;1.15;;;23.40;50.20;;;;;;4986824;28;20034;-55
2021/10/26 11:08:14;;;;;;;1.90;1.23;;;23.40;50.20;;;;;;4992835;28;20022;-55
2021/10/26 11:11:00;;;;;;;1.90;1.20;;;23.40;50.10;;;;;;4983831;28;20034;-57
2021/10/26 11:13:28;;;;;;;2.35;1.40;;;23.40;50.10;;;;;;4988628;28;20057;-58
2021/10/26 11:15:58;;;;;;;2.20;1.30;;;23.40;50.10;;;;;;4987663;28;20034;-53
2021/10/26 11:18:33;;;;;;;;;;;23.40;50.20;;;;;;4986225;28;20270;-56
2021/10/26 11:21:11;;;;;;;2.03;1.25;;;23.50;50.20;;;;;;4980255;28;19918;-58
2021/10/26 11:23:36;;;;;;;2.67;1.30;;;23.50;50.10;;;;;;4979796;28;20085;-56
2021/10/26 11:26:05;;;;;;;2.22;1.35;;;23.50;50.10;;;;;;4979465;28;20022;-58
2021/10/26 11:28:30;;;;;;;2.40;1.37;;;23.50;50.10;;;;;;4982142;28;20062;-57
2021/10/26 11:31:00;;;;;;;3.30;1.38;;;23.50;50.10;;;;;;4989593;28;20123;-60
2021/10/26 11:33:28;;;;;;;1.92;1.10;;;23.50;50.20;;;;;;4985082;28;20041;-53
2021/10/26 11:36:06;;;;;;;1.52;1.00;;;23.50;50.40;;;;;;4982819;28;20546;-55
2021/10/26 11:38:50;;;;;;;3.55;1.10;;;23.50;51.20;;;;;;4987723;28;20084;-57
2021/10/26 11:41:21;;;;;;;1.17;0.90;;;23.60;51.50;;;;;;4985860;28;20065;-61
2021/10/26 11:44:09;;;;;;;1.27;0.90;;;23.60;51.50;;;;;;4982315;28;20026;-57
2021/10/26 11:46:44;;;;;;;1.60;1.00;;;23.70;52.40;;;;;;4978134;28;20117;-57
2021/10/26 11:49:18;;;;;;;1.58;1.00;;;23.70;52.40;;;;;;4978898;28;20073;-56
2021/10/26 11:51:50;;;;;;;1.63;1.00;;;23.80;52.80;;;;;;4976786;28;20129;-55
2021/10/26 11:54:25;;;;;;;1.83;1.10;;;23.80;53.20;;;;;;4978129;28;20095;-57
2021/10/26 11:57:05;;;;;;;1.70;0.90;;;23.90;53.20;;;;;;4982984;28;20038;-55
2021/10/26 11:59:36;;;;;;;1.50;1.00;;;24.00;53.30;;;;;;4982110;28;20761;-59
2021/10/26 12:02:05;;;;;;;1.55;0.90;;;24.00;53.30;;;;;;4985556;28;20126;-57
2021/10/26 12:04:39;;;;;;;1.00;0.82;;;24.00;53.40;;;;;;4984395;28;20662;-57
2021/10/26 12:07:08;;;;;;;1.45;1.05;;;24.10;53.40;;;;;;4976854;28;20073;-55
2021/10/26 12:09:45;;;;;;;1.38;0.90;;;24.10;53.50;;;;;;4987427;28;20021;-60
2021/10/26 12:12:20;;;;;;;1.10;0.80;;;24.10;53.60;;;;;;4987825;28;20769;-59
2021/10/26 12:15:07;;;;;;;1.10;0.82;;;24.10;53.60;;;;;;4991578;28;20041;-59
2021/10/26 12:17:37;;;;;;;1.77;1.00;;;24.20;53.80;;;;;;4977003;28;20032;-63
2021/10/26 12:20:24;;;;;;;1.65;1.00;;;24.20;53.80;;;;;;4980128;28;20201;-59
2021/10/26 12:22:54;;;;;;;1.00;0.90;;;24.30;53.90;;;;;;4987830;28;20030;-59
2021/10/26 12:25:24;;;;;;;1.10;0.80;;;24.30;54.00;;;;;;4980223;28;20058;-61
2021/10/26 12:27:56;;;;;;;1.20;0.85;;;24.30;54.10;;;;;;4977824;28;20030;-60
2021/10/26 12:30:31;;;;;;;1.13;0.98;;;24.30;54.10;;;;;;4980002;28;20647;-58
2021/10/26 12:33:07;;;;;;;1.08;0.82;;;24.40;54.20;;;;;;4985422;28;20029;-57
2021/10/26 12:35:50;;;;;;;1.30;0.80;;;24.40;54.20;;;;;;4971705;28;20070;-60
2021/10/26 12:38:27;;;;;;;1.20;0.88;;;24.50;55.20;;;;;;4977578;28;20439;-59
2021/10/26 12:41:13;;;;;;;1.38;0.90;;;24.50;54.60;;;;;;4978392;28;20822;-60
2021/10/26 12:43:41;;;;;;;1.30;0.80;;;24.50;54.80;;;;;;4982509;28;21491;-56
2021/10/26 12:46:19;;;;;;;1.67;0.75;;;24.60;54.90;;;;;;4974939;28;20029;-57
2021/10/26 12:48:45;;;;;;;0.95;0.80;;;24.60;54.90;;;;;;4977792;28;20117;-60
2021/10/26 12:51:22;;;;;;;1.40;0.70;;;24.60;55.00;;;;;;4986148;28;20030;-63
2021/10/26 12:53:48;;;;;;;1.10;0.82;;;24.70;55.10;;;;;;4975424;28;20118;-55
2021/10/26 12:56:19;;;;;;;1.50;0.98;;;24.70;55.10;;;;;;4984255;28;20066;-55
2021/10/26 12:58:54;;;;;;;1.33;0.90;;;24.70;55.30;;;;;;4988154;28;20041;-60